createdAt,value
2017-01-30T00:00:16.532Z,1015.35
2017-01-30T00:00:57.194Z,1015.37
2017-01-30T00:01:37.830Z,1015.37
2017-01-30T00:02:18.605Z,1015.4
2017-01-30T00:02:59.259Z,1015.36
2017-01-30T00:03:39.932Z,1015.37
2017-01-30T00:04:20.577Z,1015.41
2017-01-30T00:05:01.230Z,1015.37
2017-01-30T00:05:41.910Z,1015.36
2017-01-30T00:06:22.550Z,1015.35
2017-01-30T00:07:03.261Z,1015.36
2017-01-30T00:07:43.997Z,1015.37
2017-01-30T00:08:24.633Z,1015.35
2017-01-30T00:09:05.304Z,1015.38
2017-01-30T00:09:46.045Z,1015.39
2017-01-30T00:10:26.674Z,1015.35
2017-01-30T00:11:07.307Z,1015.34
2017-01-30T00:11:47.939Z,1015.33
2017-01-30T00:12:28.633Z,1015.35
2017-01-30T00:13:09.258Z,1015.32
2017-01-30T00:13:49.982Z,1015.33
2017-01-30T00:14:30.722Z,1015.36
2017-01-30T00:15:11.361Z,1015.37
2017-01-30T00:15:52.050Z,1015.35
2017-01-30T00:16:32.751Z,1015.37
2017-01-30T00:17:13.467Z,1015.38
2017-01-30T00:17:54.104Z,1015.38
2017-01-30T00:18:34.782Z,1015.31
2017-01-30T00:19:15.454Z,1015.34
2017-01-30T00:19:56.087Z,1015.29
2017-01-30T00:20:36.745Z,1015.3
2017-01-30T00:21:17.424Z,1015.3
2017-01-30T00:21:58.058Z,1015.31
2017-01-30T00:22:38.735Z,1015.27
2017-01-30T00:23:19.425Z,1015.3
2017-01-30T00:24:00.122Z,1015.27
2017-01-30T00:24:40.765Z,1015.3
2017-01-30T00:25:21.397Z,1015.26
2017-01-30T00:26:02.041Z,1015.23
2017-01-30T00:26:42.675Z,1015.24
2017-01-30T00:27:23.316Z,1015.23
2017-01-30T00:28:04.047Z,1015.23
2017-01-30T00:28:44.687Z,1015.21
2017-01-30T00:29:25.396Z,1015.23
2017-01-30T00:30:06.026Z,1015.21
2017-01-30T00:30:46.656Z,1015.23
2017-01-30T00:31:27.340Z,1015.23
2017-01-30T00:32:07.991Z,1015.21
2017-01-30T00:32:48.617Z,1015.2
2017-01-30T00:33:29.326Z,1015.2
2017-01-30T00:34:10.005Z,1015.16
2017-01-30T00:34:50.701Z,1015.14
2017-01-30T00:35:31.353Z,1015.12
2017-01-30T00:36:11.980Z,1015.14
2017-01-30T00:36:52.726Z,1015.13
2017-01-30T00:37:33.363Z,1015.14
2017-01-30T00:38:14.054Z,1015.09
2017-01-30T00:38:54.717Z,1015.1
2017-01-30T00:39:35.350Z,1015.09
2017-01-30T00:40:16.049Z,1015.06
2017-01-30T00:40:56.723Z,1015.04
2017-01-30T00:41:37.384Z,1015.05
2017-01-30T00:42:18.015Z,1015.04
2017-01-30T00:42:58.718Z,1015.02
2017-01-30T00:43:39.396Z,1015.04
2017-01-30T00:44:20.021Z,1015.02
2017-01-30T00:45:00.743Z,1015.02
2017-01-30T00:45:41.502Z,1015.01
2017-01-30T00:46:22.151Z,1015.01
2017-01-30T00:47:02.829Z,1014.98
2017-01-30T00:47:43.462Z,1014.97
2017-01-30T00:48:24.151Z,1014.96
2017-01-30T00:49:07.619Z,1014.96
2017-01-30T00:49:48.321Z,1014.93
2017-01-30T00:50:28.955Z,1014.92
2017-01-30T00:51:09.674Z,1014.91
2017-01-30T00:51:50.352Z,1014.92
2017-01-30T00:52:31.060Z,1014.9
2017-01-30T00:53:11.689Z,1014.85
2017-01-30T00:53:52.457Z,1014.85
2017-01-30T00:54:33.169Z,1014.86
2017-01-30T00:55:13.841Z,1014.85
2017-01-30T00:55:54.427Z,1014.85
2017-01-30T00:56:35.180Z,1014.85
2017-01-30T00:57:15.869Z,1014.84
2017-01-30T00:57:56.502Z,1014.83
2017-01-30T00:58:37.208Z,1014.82
2017-01-30T00:59:17.879Z,1014.77
2017-01-30T00:59:58.513Z,1014.81
2017-01-30T01:00:39.244Z,1014.78
2017-01-30T01:01:19.921Z,1014.8
2017-01-30T01:02:00.619Z,1014.75
2017-01-30T01:02:41.211Z,1014.75
2017-01-30T01:03:21.873Z,1014.74
2017-01-30T01:04:02.561Z,1014.75
2017-01-30T01:04:43.182Z,1014.7
2017-01-30T01:05:23.823Z,1014.67
2017-01-30T01:06:04.521Z,1014.69
2017-01-30T01:06:45.157Z,1014.7
2017-01-30T01:07:25.860Z,1014.62
2017-01-30T01:08:06.530Z,1014.65
2017-01-30T01:08:47.156Z,1014.64
2017-01-30T01:09:27.823Z,1014.63
2017-01-30T01:10:08.554Z,1014.62
2017-01-30T01:10:49.188Z,1014.62
2017-01-30T01:11:29.819Z,1014.57
2017-01-30T01:12:10.692Z,1014.59
2017-01-30T01:12:51.362Z,1014.57
2017-01-30T01:13:32.000Z,1014.57
2017-01-30T01:14:12.633Z,1014.58
2017-01-30T01:14:53.304Z,1014.59
2017-01-30T01:15:33.928Z,1014.6
2017-01-30T01:16:14.559Z,1014.57
2017-01-30T01:16:55.228Z,1014.58
2017-01-30T01:17:35.858Z,1014.57
2017-01-30T01:18:16.492Z,1014.59
2017-01-30T01:18:57.147Z,1014.6
2017-01-30T01:19:37.789Z,1014.58
2017-01-30T01:20:18.416Z,1014.57
2017-01-30T01:20:59.075Z,1014.56
2017-01-30T01:21:39.702Z,1014.55
2017-01-30T01:22:20.342Z,1014.54
2017-01-30T01:23:01.016Z,1014.52
2017-01-30T01:23:41.663Z,1014.5
2017-01-30T01:24:22.291Z,1014.5
2017-01-30T01:25:02.993Z,1014.5
2017-01-30T01:25:43.659Z,1014.48
2017-01-30T01:26:24.275Z,1014.49
2017-01-30T01:27:04.980Z,1014.49
2017-01-30T01:27:45.607Z,1014.48
2017-01-30T01:28:26.251Z,1014.47
2017-01-30T01:29:06.897Z,1014.48
2017-01-30T01:29:47.512Z,1014.51
2017-01-30T01:30:28.167Z,1014.52
2017-01-30T01:31:08.793Z,1014.47
2017-01-30T01:31:49.419Z,1014.51
2017-01-30T01:32:30.045Z,1014.51
2017-01-30T01:33:10.678Z,1014.54
2017-01-30T01:33:51.371Z,1014.52
2017-01-30T01:34:32.021Z,1014.54
2017-01-30T01:35:12.721Z,1014.51
2017-01-30T01:35:53.373Z,1014.52
2017-01-30T01:36:34.005Z,1014.51
2017-01-30T01:37:14.711Z,1014.47
2017-01-30T01:37:55.438Z,1014.52
2017-01-30T01:38:36.061Z,1014.44
2017-01-30T01:39:16.695Z,1014.43
2017-01-30T01:39:57.315Z,1014.4
2017-01-30T01:40:37.947Z,1014.41
2017-01-30T01:41:18.672Z,1014.35
2017-01-30T01:41:59.386Z,1014.32
2017-01-30T01:42:40.022Z,1014.32
2017-01-30T01:43:20.651Z,1014.26
2017-01-30T01:44:01.282Z,1014.25
2017-01-30T01:44:41.949Z,1014.23
2017-01-30T01:45:22.577Z,1014.21
2017-01-30T01:46:03.270Z,1014.18
2017-01-30T01:46:43.903Z,1014.17
2017-01-30T01:47:24.529Z,1014.14
2017-01-30T01:48:05.155Z,1014.11
2017-01-30T01:48:45.789Z,1014.1
2017-01-30T01:49:26.416Z,1014.11
2017-01-30T01:50:07.038Z,1014.12
2017-01-30T01:50:47.658Z,1014.09
2017-01-30T01:51:28.288Z,1014.14
2017-01-30T01:52:08.940Z,1014.11
2017-01-30T01:52:49.573Z,1014.11
2017-01-30T01:53:30.199Z,1014.13
2017-01-30T01:54:10.875Z,1014.13
2017-01-30T01:54:51.511Z,1014.13
2017-01-30T01:55:32.135Z,1014.12
2017-01-30T01:56:12.809Z,1014.13
2017-01-30T01:56:53.449Z,1014.12
2017-01-30T01:57:34.084Z,1014.18
2017-01-30T01:58:14.726Z,1014.2
2017-01-30T01:58:55.458Z,1014.17
2017-01-30T01:59:36.087Z,1014.19
2017-01-30T02:00:16.730Z,1014.22
2017-01-30T02:00:57.356Z,1014.19
2017-01-30T02:01:37.980Z,1014.19
2017-01-30T02:02:18.603Z,1014.23
2017-01-30T02:02:59.239Z,1014.2
2017-01-30T02:03:39.866Z,1014.2
2017-01-30T02:04:20.510Z,1014.2
2017-01-30T02:05:01.143Z,1014.21
2017-01-30T02:05:41.778Z,1014.2
2017-01-30T02:06:22.454Z,1014.16
2017-01-30T02:07:03.085Z,1014.14
2017-01-30T02:07:43.714Z,1014.16
2017-01-30T02:08:24.340Z,1014.16
2017-01-30T02:09:04.984Z,1014.19
2017-01-30T02:09:45.620Z,1014.17
2017-01-30T02:10:26.246Z,1014.18
2017-01-30T02:11:06.869Z,1014.17
2017-01-30T02:11:47.500Z,1014.16
2017-01-30T02:12:28.135Z,1014.13
2017-01-30T02:13:08.764Z,1014.14
2017-01-30T02:13:49.396Z,1014.15
2017-01-30T02:14:30.052Z,1014.15
2017-01-30T02:15:10.674Z,1014.11
2017-01-30T02:15:51.313Z,1014.14
2017-01-30T02:16:31.983Z,1014.12
2017-01-30T02:17:12.607Z,1014.11
2017-01-30T02:17:53.230Z,1014.1
2017-01-30T02:18:33.905Z,1014.06
2017-01-30T02:19:14.533Z,1014.1
2017-01-30T02:19:55.162Z,1014.09
2017-01-30T02:20:36.533Z,1014.08
2017-01-30T02:21:17.158Z,1014.06
2017-01-30T02:21:57.816Z,1014.1
2017-01-30T02:22:38.452Z,1014.07
2017-01-30T02:23:19.078Z,1014.06
2017-01-30T02:23:59.737Z,1014.09
2017-01-30T02:24:40.367Z,1014.09
2017-01-30T02:25:21.002Z,1014.06
2017-01-30T02:26:01.627Z,1014.03
2017-01-30T02:26:42.268Z,1014.04
2017-01-30T02:27:22.900Z,1014.03
2017-01-30T02:28:03.528Z,1014.07
2017-01-30T02:28:44.214Z,1014.05
2017-01-30T02:29:24.837Z,1013.99
2017-01-30T02:30:05.463Z,1014.02
2017-01-30T02:30:46.168Z,1014.01
2017-01-30T02:31:26.803Z,1013.99
2017-01-30T02:32:07.491Z,1014
2017-01-30T02:32:48.131Z,1014.02
2017-01-30T02:33:28.758Z,1013.95
2017-01-30T02:34:09.465Z,1013.98
2017-01-30T02:34:50.103Z,1013.95
2017-01-30T02:35:30.751Z,1013.97
2017-01-30T02:36:11.455Z,1013.96
2017-01-30T02:36:52.089Z,1013.95
2017-01-30T02:37:32.725Z,1013.94
2017-01-30T02:38:13.405Z,1013.92
2017-01-30T02:38:54.036Z,1013.91
2017-01-30T02:39:34.710Z,1013.91
2017-01-30T02:40:15.375Z,1013.9
2017-01-30T02:40:56.016Z,1013.9
2017-01-30T02:41:36.701Z,1013.92
2017-01-30T02:42:17.329Z,1013.89
2017-01-30T02:42:57.952Z,1013.88
2017-01-30T02:43:38.639Z,1013.88
2017-01-30T02:44:19.259Z,1013.85
2017-01-30T02:44:59.894Z,1013.92
2017-01-30T02:45:40.584Z,1013.9
2017-01-30T02:46:21.215Z,1013.85
2017-01-30T02:47:01.862Z,1013.87
2017-01-30T02:47:42.499Z,1013.9
2017-01-30T02:48:23.127Z,1013.88
2017-01-30T02:49:03.757Z,1013.9
2017-01-30T02:49:44.388Z,1013.86
2017-01-30T02:50:25.025Z,1013.87
2017-01-30T02:51:05.653Z,1013.92
2017-01-30T02:51:46.291Z,1013.91
2017-01-30T02:52:26.916Z,1013.93
2017-01-30T02:53:07.569Z,1013.89
2017-01-30T02:53:48.197Z,1013.92
2017-01-30T02:54:28.840Z,1013.92
2017-01-30T02:55:09.540Z,1013.9
2017-01-30T02:55:50.160Z,1013.9
2017-01-30T02:56:30.818Z,1013.89
2017-01-30T02:57:11.445Z,1013.88
2017-01-30T02:57:52.079Z,1013.87
2017-01-30T02:58:32.708Z,1013.89
2017-01-30T02:59:13.392Z,1013.89
2017-01-30T02:59:54.022Z,1013.87
2017-01-30T03:00:34.644Z,1013.86
2017-01-30T03:01:15.334Z,1013.86
2017-01-30T03:01:55.966Z,1013.86
2017-01-30T03:02:36.602Z,1013.85
2017-01-30T03:03:17.313Z,1013.86
2017-01-30T03:03:57.935Z,1013.86
2017-01-30T03:04:38.566Z,1013.84
2017-01-30T03:05:19.278Z,1013.83
2017-01-30T03:05:59.904Z,1013.82
2017-01-30T03:06:40.556Z,1013.83
2017-01-30T03:07:21.236Z,1013.83
2017-01-30T03:08:01.864Z,1013.81
2017-01-30T03:08:42.506Z,1013.82
2017-01-30T03:09:23.161Z,1013.8
2017-01-30T03:10:03.786Z,1013.79
2017-01-30T03:10:44.421Z,1013.77
2017-01-30T03:11:25.085Z,1013.76
2017-01-30T03:12:05.732Z,1013.76
2017-01-30T03:12:46.362Z,1013.79
2017-01-30T03:13:26.995Z,1013.73
2017-01-30T03:14:07.674Z,1013.72
2017-01-30T03:14:48.330Z,1013.69
2017-01-30T03:15:28.960Z,1013.73
2017-01-30T03:16:09.636Z,1013.68
2017-01-30T03:16:50.273Z,1013.72
2017-01-30T03:17:30.897Z,1013.69
2017-01-30T03:18:11.558Z,1013.66
2017-01-30T03:18:52.184Z,1013.64
2017-01-30T03:19:32.813Z,1013.68
2017-01-30T03:20:13.483Z,1013.66
2017-01-30T03:20:54.106Z,1013.69
2017-01-30T03:21:34.731Z,1013.69
2017-01-30T03:22:15.358Z,1013.65
2017-01-30T03:22:55.994Z,1013.67
2017-01-30T03:23:36.626Z,1013.66
2017-01-30T03:24:17.270Z,1013.66
2017-01-30T03:24:57.959Z,1013.69
2017-01-30T03:25:38.641Z,1013.64
2017-01-30T03:26:19.372Z,1013.67
2017-01-30T03:27:00.850Z,1013.63
2017-01-30T03:27:41.419Z,1013.66
2017-01-30T03:28:22.082Z,1013.67
2017-01-30T03:29:02.751Z,1013.71
2017-01-30T03:29:43.473Z,1013.67
2017-01-30T03:30:24.104Z,1013.7
2017-01-30T03:31:04.735Z,1013.7
2017-01-30T03:31:45.370Z,1013.69
2017-01-30T03:32:25.999Z,1013.73
2017-01-30T03:33:06.644Z,1013.69
2017-01-30T03:33:47.267Z,1013.68
2017-01-30T03:34:27.894Z,1013.66
2017-01-30T03:35:08.541Z,1013.71
2017-01-30T03:35:49.164Z,1013.71
2017-01-30T03:36:29.806Z,1013.7
2017-01-30T03:37:10.480Z,1013.71
2017-01-30T03:37:51.119Z,1013.73
2017-01-30T03:38:31.765Z,1013.75
2017-01-30T03:39:12.456Z,1013.69
2017-01-30T03:39:53.107Z,1013.71
2017-01-30T03:40:33.734Z,1013.75
2017-01-30T03:41:14.359Z,1013.74
2017-01-30T03:41:54.988Z,1013.75
2017-01-30T03:42:35.621Z,1013.75
2017-01-30T03:43:16.312Z,1013.75
2017-01-30T03:43:56.937Z,1013.75
2017-01-30T03:44:37.580Z,1013.72
2017-01-30T03:45:18.209Z,1013.73
2017-01-30T03:45:58.833Z,1013.75
2017-01-30T03:46:39.476Z,1013.73
2017-01-30T03:47:20.108Z,1013.76
2017-01-30T03:48:00.743Z,1013.74
2017-01-30T03:48:41.371Z,1013.73
2017-01-30T03:49:21.999Z,1013.74
2017-01-30T03:50:02.632Z,1013.73
2017-01-30T03:50:43.287Z,1013.74
2017-01-30T03:51:23.909Z,1013.73
2017-01-30T03:52:04.545Z,1013.69
2017-01-30T03:52:45.227Z,1013.71
2017-01-30T03:53:25.859Z,1013.73
2017-01-30T03:54:06.493Z,1013.74
2017-01-30T03:54:47.189Z,1013.72
2017-01-30T03:55:27.822Z,1013.7
2017-01-30T03:56:08.442Z,1013.7
2017-01-30T03:56:49.120Z,1013.66
2017-01-30T03:57:29.754Z,1013.63
2017-01-30T03:58:10.395Z,1013.63
2017-01-30T03:58:51.077Z,1013.65
2017-01-30T03:59:31.712Z,1013.63
2017-01-30T04:00:12.353Z,1013.65
2017-01-30T04:00:53.002Z,1013.63
2017-01-30T04:01:33.633Z,1013.57
2017-01-30T04:02:14.264Z,1013.6
2017-01-30T04:02:54.974Z,1013.63
2017-01-30T04:03:35.608Z,1013.58
2017-01-30T04:04:16.228Z,1013.59
2017-01-30T04:04:56.930Z,1013.64
2017-01-30T04:05:37.557Z,1013.65
2017-01-30T04:06:18.181Z,1013.61
2017-01-30T04:06:58.885Z,1013.63
2017-01-30T04:07:39.517Z,1013.67
2017-01-30T04:08:20.211Z,1013.67
2017-01-30T04:09:00.799Z,1013.66
2017-01-30T04:09:41.447Z,1013.65
2017-01-30T04:10:22.111Z,1013.69
2017-01-30T04:11:02.740Z,1013.71
2017-01-30T04:11:43.434Z,1013.67
2017-01-30T04:12:24.159Z,1013.66
2017-01-30T04:13:04.775Z,1013.65
2017-01-30T04:13:45.420Z,1013.59
2017-01-30T04:14:26.057Z,1013.58
2017-01-30T04:15:06.691Z,1013.56
2017-01-30T04:15:47.318Z,1013.63
2017-01-30T04:16:27.956Z,1013.57
2017-01-30T04:17:08.580Z,1013.53
2017-01-30T04:17:49.219Z,1013.55
2017-01-30T04:18:29.839Z,1013.55
2017-01-30T04:19:10.486Z,1013.57
2017-01-30T04:19:51.133Z,1013.57
2017-01-30T04:20:31.758Z,1013.54
2017-01-30T04:21:12.383Z,1013.56
2017-01-30T04:21:53.092Z,1013.58
2017-01-30T04:22:33.734Z,1013.55
2017-01-30T04:23:14.362Z,1013.58
2017-01-30T04:23:55.003Z,1013.59
2017-01-30T04:24:35.621Z,1013.61
2017-01-30T04:25:16.252Z,1013.58
2017-01-30T04:25:56.885Z,1013.54
2017-01-30T04:26:37.517Z,1013.56
2017-01-30T04:27:18.153Z,1013.55
2017-01-30T04:27:58.776Z,1013.52
2017-01-30T04:28:39.404Z,1013.55
2017-01-30T04:29:20.027Z,1013.49
2017-01-30T04:30:00.680Z,1013.52
2017-01-30T04:30:41.306Z,1013.48
2017-01-30T04:31:21.930Z,1013.51
2017-01-30T04:32:02.618Z,1013.49
2017-01-30T04:32:43.245Z,1013.47
2017-01-30T04:33:23.869Z,1013.44
2017-01-30T04:34:05.081Z,1013.45
2017-01-30T04:34:45.722Z,1013.43
2017-01-30T04:35:26.363Z,1013.43
2017-01-30T04:36:06.985Z,1013.42
2017-01-30T04:36:47.678Z,1013.39
2017-01-30T04:37:28.308Z,1013.44
2017-01-30T04:38:09.017Z,1013.39
2017-01-30T04:38:49.600Z,1013.38
2017-01-30T04:39:30.229Z,1013.36
2017-01-30T04:40:10.868Z,1013.37
2017-01-30T04:40:51.500Z,1013.34
2017-01-30T04:41:32.176Z,1013.31
2017-01-30T04:42:12.877Z,1013.33
2017-01-30T04:42:53.449Z,1013.28
2017-01-30T04:43:34.098Z,1013.27
2017-01-30T04:44:14.751Z,1013.28
2017-01-30T04:44:55.366Z,1013.27
2017-01-30T04:45:35.992Z,1013.27
2017-01-30T04:46:16.664Z,1013.26
2017-01-30T04:46:57.312Z,1013.22
2017-01-30T04:47:37.925Z,1013.23
2017-01-30T04:48:18.602Z,1013.24
2017-01-30T04:48:59.219Z,1013.24
2017-01-30T04:49:39.865Z,1013.22
2017-01-30T04:50:20.579Z,1013.22
2017-01-30T04:51:01.212Z,1013.21
2017-01-30T04:51:41.841Z,1013.18
2017-01-30T04:52:22.548Z,1013.19
2017-01-30T04:53:03.179Z,1013.21
2017-01-30T04:53:43.805Z,1013.17
2017-01-30T04:54:24.479Z,1013.15
2017-01-30T04:55:05.106Z,1013.18
2017-01-30T04:55:45.786Z,1013.17
2017-01-30T04:56:26.478Z,1013.16
2017-01-30T04:57:07.108Z,1013.18
2017-01-30T04:57:47.744Z,1013.15
2017-01-30T04:58:28.420Z,1013.17
2017-01-30T04:59:09.053Z,1013.18
2017-01-30T04:59:49.681Z,1013.12
2017-01-30T05:00:30.365Z,1013.1
2017-01-30T05:01:10.988Z,1013.11
2017-01-30T05:01:51.616Z,1013.06
2017-01-30T05:02:32.317Z,1013.07
2017-01-30T05:03:12.950Z,1013.05
2017-01-30T05:03:53.577Z,1012.99
2017-01-30T05:04:34.222Z,1013
2017-01-30T05:05:14.857Z,1013.02
2017-01-30T05:05:56.130Z,1012.97
2017-01-30T05:06:36.774Z,1012.94
2017-01-30T05:07:17.400Z,1012.96
2017-01-30T05:07:58.054Z,1012.93
2017-01-30T05:08:38.684Z,1012.93
2017-01-30T05:09:19.320Z,1012.95
2017-01-30T05:09:59.947Z,1012.94
2017-01-30T05:10:40.585Z,1012.93
2017-01-30T05:11:21.222Z,1012.92
2017-01-30T05:12:01.848Z,1012.93
2017-01-30T05:12:42.478Z,1012.92
2017-01-30T05:13:23.104Z,1012.95
2017-01-30T05:14:03.729Z,1012.94
2017-01-30T05:14:44.359Z,1012.96
2017-01-30T05:15:25.001Z,1012.97
2017-01-30T05:16:05.622Z,1012.99
2017-01-30T05:16:46.242Z,1012.99
2017-01-30T05:17:26.932Z,1012.96
2017-01-30T05:18:07.565Z,1012.99
2017-01-30T05:18:48.191Z,1012.95
2017-01-30T05:19:28.848Z,1012.91
2017-01-30T05:20:09.477Z,1012.94
2017-01-30T05:20:50.110Z,1012.95
2017-01-30T05:21:30.774Z,1012.95
2017-01-30T05:22:11.404Z,1012.94
2017-01-30T05:22:52.035Z,1012.94
2017-01-30T05:23:32.695Z,1012.96
2017-01-30T05:24:13.319Z,1012.95
2017-01-30T05:24:53.946Z,1012.97
2017-01-30T05:25:34.657Z,1012.98
2017-01-30T05:26:15.284Z,1012.98
2017-01-30T05:26:55.908Z,1013.01
2017-01-30T05:27:36.557Z,1012.97
2017-01-30T05:28:17.190Z,1012.98
2017-01-30T05:28:57.823Z,1012.94
2017-01-30T05:29:38.468Z,1012.97
2017-01-30T05:30:19.215Z,1012.94
2017-01-30T05:30:59.883Z,1012.92
2017-01-30T05:31:40.479Z,1012.94
2017-01-30T05:32:21.153Z,1012.94
2017-01-30T05:33:01.784Z,1012.95
2017-01-30T05:33:42.403Z,1012.91
2017-01-30T05:34:23.093Z,1012.89
2017-01-30T05:35:03.731Z,1012.92
2017-01-30T05:35:44.369Z,1012.89
2017-01-30T05:36:24.993Z,1012.92
2017-01-30T05:37:05.623Z,1012.91
2017-01-30T05:37:46.261Z,1012.91
2017-01-30T05:38:26.953Z,1012.91
2017-01-30T05:39:07.590Z,1012.97
2017-01-30T05:39:48.217Z,1012.95
2017-01-30T05:40:28.902Z,1012.93
2017-01-30T05:41:09.521Z,1012.93
2017-01-30T05:41:50.166Z,1012.96
2017-01-30T05:42:30.829Z,1012.95
2017-01-30T05:43:11.469Z,1012.95
2017-01-30T05:43:52.100Z,1012.92
2017-01-30T05:44:32.821Z,1012.93
2017-01-30T05:45:13.428Z,1012.97
2017-01-30T05:45:54.069Z,1012.91
2017-01-30T05:46:34.704Z,1012.91
2017-01-30T05:47:15.334Z,1012.94
2017-01-30T05:47:55.973Z,1012.92
2017-01-30T05:48:36.643Z,1012.9
2017-01-30T05:49:17.275Z,1012.89
2017-01-30T05:49:57.904Z,1012.91
2017-01-30T05:50:38.568Z,1012.91
2017-01-30T05:51:19.198Z,1012.84
2017-01-30T05:51:59.826Z,1012.83
2017-01-30T05:52:40.500Z,1012.82
2017-01-30T05:53:21.137Z,1012.83
2017-01-30T05:54:01.773Z,1012.82
2017-01-30T05:54:42.467Z,1012.79
2017-01-30T05:55:23.093Z,1012.8
2017-01-30T05:56:03.739Z,1012.78
2017-01-30T05:56:44.409Z,1012.82
2017-01-30T05:57:25.041Z,1012.8
2017-01-30T05:58:05.674Z,1012.77
2017-01-30T05:58:46.321Z,1012.77
2017-01-30T05:59:26.953Z,1012.77
2017-01-30T06:00:07.590Z,1012.77
2017-01-30T06:00:48.242Z,1012.77
2017-01-30T06:01:28.895Z,1012.81
2017-01-30T06:02:09.520Z,1012.81
2017-01-30T06:02:50.274Z,1012.83
2017-01-30T06:03:30.904Z,1012.83
2017-01-30T06:04:11.541Z,1012.79
2017-01-30T06:04:52.195Z,1012.77
2017-01-30T06:05:32.826Z,1012.76
2017-01-30T06:06:13.559Z,1012.79
2017-01-30T06:06:54.203Z,1012.8
2017-01-30T06:07:34.835Z,1012.79
2017-01-30T06:08:15.518Z,1012.81
2017-01-30T06:08:56.155Z,1012.85
2017-01-30T06:09:36.787Z,1012.8
2017-01-30T06:10:17.473Z,1012.82
2017-01-30T06:10:58.099Z,1012.8
2017-01-30T06:11:38.726Z,1012.79
2017-01-30T06:12:19.361Z,1012.78
2017-01-30T06:12:59.998Z,1012.8
2017-01-30T06:13:40.642Z,1012.8
2017-01-30T06:14:21.262Z,1012.79
2017-01-30T06:15:01.893Z,1012.76
2017-01-30T06:15:42.524Z,1012.76
2017-01-30T06:16:23.156Z,1012.75
2017-01-30T06:17:03.782Z,1012.74
2017-01-30T06:17:44.442Z,1012.75
2017-01-30T06:18:25.077Z,1012.79
2017-01-30T06:19:05.709Z,1012.77
2017-01-30T06:19:46.373Z,1012.76
2017-01-30T06:20:27.005Z,1012.78
2017-01-30T06:21:07.628Z,1012.78
2017-01-30T06:21:48.300Z,1012.8
2017-01-30T06:22:28.944Z,1012.83
2017-01-30T06:23:09.571Z,1012.8
2017-01-30T06:23:50.259Z,1012.76
2017-01-30T06:24:30.890Z,1012.75
2017-01-30T06:25:11.515Z,1012.79
2017-01-30T06:25:52.243Z,1012.77
2017-01-30T06:26:32.869Z,1012.72
2017-01-30T06:27:13.493Z,1012.74
2017-01-30T06:27:54.119Z,1012.73
2017-01-30T06:28:34.786Z,1012.74
2017-01-30T06:29:15.406Z,1012.74
2017-01-30T06:29:56.039Z,1012.75
2017-01-30T06:30:36.663Z,1012.73
2017-01-30T06:31:17.286Z,1012.74
2017-01-30T06:31:57.931Z,1012.74
2017-01-30T06:32:38.566Z,1012.75
2017-01-30T06:33:19.198Z,1012.74
2017-01-30T06:33:59.814Z,1012.73
2017-01-30T06:34:40.444Z,1012.76
2017-01-30T06:35:21.082Z,1012.75
2017-01-30T06:36:01.717Z,1012.75
2017-01-30T06:36:42.346Z,1012.73
2017-01-30T06:37:22.979Z,1012.72
2017-01-30T06:38:03.663Z,1012.71
2017-01-30T06:38:44.302Z,1012.71
2017-01-30T06:39:24.934Z,1012.73
2017-01-30T06:40:05.566Z,1012.73
2017-01-30T06:40:46.224Z,1012.74
2017-01-30T06:41:26.855Z,1012.74
2017-01-30T06:42:07.486Z,1012.71
2017-01-30T06:42:48.113Z,1012.71
2017-01-30T06:43:28.742Z,1012.75
2017-01-30T06:44:09.406Z,1012.71
2017-01-30T06:44:50.037Z,1012.73
2017-01-30T06:45:30.672Z,1012.76
2017-01-30T06:46:11.313Z,1012.71
2017-01-30T06:46:51.952Z,1012.7
2017-01-30T06:47:32.568Z,1012.73
2017-01-30T06:48:13.194Z,1012.73
2017-01-30T06:48:53.817Z,1012.72
2017-01-30T06:49:34.443Z,1012.74
2017-01-30T06:50:15.066Z,1012.74
2017-01-30T06:50:55.700Z,1012.73
2017-01-30T06:51:36.339Z,1012.71
2017-01-30T06:52:16.974Z,1012.71
2017-01-30T06:52:57.637Z,1012.73
2017-01-30T06:53:38.270Z,1012.72
2017-01-30T06:54:18.909Z,1012.76
2017-01-30T06:54:59.564Z,1012.76
2017-01-30T06:55:40.205Z,1012.76
2017-01-30T06:56:20.828Z,1012.81
2017-01-30T06:57:01.505Z,1012.8
2017-01-30T06:57:42.117Z,1012.78
2017-01-30T06:58:22.736Z,1012.78
2017-01-30T06:59:03.423Z,1012.82
2017-01-30T06:59:43.993Z,1012.84
2017-01-30T07:00:24.631Z,1012.79
2017-01-30T07:01:05.267Z,1012.83
2017-01-30T07:01:45.882Z,1012.81
2017-01-30T07:02:26.553Z,1012.81
2017-01-30T07:03:07.275Z,1012.83
2017-01-30T07:03:47.809Z,1012.8
2017-01-30T07:04:28.477Z,1012.83
2017-01-30T07:05:09.105Z,1012.81
2017-01-30T07:05:49.732Z,1012.81
2017-01-30T07:06:30.401Z,1012.77
2017-01-30T07:07:11.051Z,1012.78
2017-01-30T07:07:51.672Z,1012.81
2017-01-30T07:08:32.409Z,1012.78
2017-01-30T07:09:13.055Z,1012.81
2017-01-30T07:09:53.697Z,1012.82
2017-01-30T07:10:34.325Z,1012.83
2017-01-30T07:11:14.980Z,1012.82
2017-01-30T07:11:55.612Z,1012.79
2017-01-30T07:12:36.253Z,1012.8
2017-01-30T07:13:16.919Z,1012.81
2017-01-30T07:13:57.554Z,1012.86
2017-01-30T07:14:38.179Z,1012.83
2017-01-30T07:15:18.834Z,1012.82
2017-01-30T07:15:59.464Z,1012.84
2017-01-30T07:16:40.102Z,1012.83
2017-01-30T07:17:20.761Z,1012.83
2017-01-30T07:18:01.409Z,1012.82
2017-01-30T07:18:42.034Z,1012.89
2017-01-30T07:19:22.695Z,1012.87
2017-01-30T07:20:03.322Z,1012.85
2017-01-30T07:20:43.951Z,1012.87
2017-01-30T07:21:24.622Z,1012.9
2017-01-30T07:22:05.247Z,1012.92
2017-01-30T07:22:45.875Z,1012.88
2017-01-30T07:23:26.560Z,1012.89
2017-01-30T07:24:07.199Z,1012.91
2017-01-30T07:24:47.837Z,1012.95
2017-01-30T07:25:28.495Z,1012.94
2017-01-30T07:26:09.122Z,1012.93
2017-01-30T07:26:49.746Z,1012.92
2017-01-30T07:27:30.382Z,1012.95
2017-01-30T07:28:11.018Z,1012.94
2017-01-30T07:28:51.653Z,1012.95
2017-01-30T07:29:32.286Z,1012.98
2017-01-30T07:30:12.920Z,1012.94
2017-01-30T07:30:53.573Z,1012.93
2017-01-30T07:31:34.201Z,1012.94
2017-01-30T07:32:14.841Z,1012.91
2017-01-30T07:32:55.498Z,1012.92
2017-01-30T07:33:36.104Z,1012.91
2017-01-30T07:34:16.743Z,1012.95
2017-01-30T07:34:57.374Z,1012.99
2017-01-30T07:35:38.004Z,1012.94
2017-01-30T07:36:18.634Z,1012.97
2017-01-30T07:36:59.342Z,1012.99
2017-01-30T07:37:39.971Z,1012.97
2017-01-30T07:38:20.593Z,1012.96
2017-01-30T07:39:01.289Z,1012.95
2017-01-30T07:39:41.916Z,1012.94
2017-01-30T07:40:22.553Z,1012.97
2017-01-30T07:41:03.211Z,1012.99
2017-01-30T07:41:43.836Z,1013
2017-01-30T07:42:24.485Z,1012.98
2017-01-30T07:43:05.188Z,1012.95
2017-01-30T07:43:45.823Z,1012.96
2017-01-30T07:44:26.452Z,1012.95
2017-01-30T07:45:07.085Z,1012.96
2017-01-30T07:45:47.740Z,1012.98
2017-01-30T07:46:28.367Z,1012.97
2017-01-30T07:47:09.003Z,1012.96
2017-01-30T07:47:49.741Z,1012.96
2017-01-30T07:48:30.432Z,1012.97
2017-01-30T07:49:11.062Z,1012.95
2017-01-30T07:49:51.701Z,1012.9
2017-01-30T07:50:32.365Z,1012.93
2017-01-30T07:51:12.967Z,1012.93
2017-01-30T07:51:53.631Z,1012.9
2017-01-30T07:52:34.335Z,1012.91
2017-01-30T07:53:14.987Z,1012.89
2017-01-30T07:53:55.620Z,1012.87
2017-01-30T07:54:36.312Z,1012.85
2017-01-30T07:55:16.950Z,1012.82
2017-01-30T07:55:57.583Z,1012.83
2017-01-30T07:56:38.206Z,1012.78
2017-01-30T07:57:18.858Z,1012.74
2017-01-30T07:57:59.505Z,1012.74
2017-01-30T07:58:40.155Z,1012.73
2017-01-30T07:59:20.782Z,1012.73
2017-01-30T08:00:01.410Z,1012.7
2017-01-30T08:00:42.047Z,1012.68
2017-01-30T08:01:22.678Z,1012.74
2017-01-30T08:02:03.314Z,1012.67
2017-01-30T08:02:43.935Z,1012.67
2017-01-30T08:03:24.578Z,1012.67
2017-01-30T08:04:05.213Z,1012.66
2017-01-30T08:04:45.851Z,1012.64
2017-01-30T08:05:26.487Z,1012.66
2017-01-30T08:06:07.118Z,1012.65
2017-01-30T08:06:47.750Z,1012.65
2017-01-30T08:07:28.375Z,1012.65
2017-01-30T08:08:09.012Z,1012.61
2017-01-30T08:08:49.660Z,1012.67
2017-01-30T08:09:30.296Z,1012.67
2017-01-30T08:10:10.920Z,1012.64
2017-01-30T08:10:51.594Z,1012.66
2017-01-30T08:11:32.237Z,1012.67
2017-01-30T08:12:12.868Z,1012.62
2017-01-30T08:12:53.514Z,1012.65